Gallup, NM

7:31 PM MDT on August 20, 2014 (GMT -0600)
Gallup Municipal | Change Station
CLOSE
Current Station
Airport
Location: Gallup,
Elevation: 6470 ft
Nearby Weather Stations

Elev 6470 ft 35.51 °N, 108.79 °W | Updated 38 minutes ago

Mostly Cloudy
Mostly Cloudy
75 °F
Feels Like 75 °F
N
0
Wind Variable Wind from North

Today
High -- | Low -- °F
--% Chance of Precip.
Yesterday
High -- | Low -- °F
Precip. -- in
6:38 AM 7:57 PM
Waning Crescent, 18% visible
Pressure 29.74 in
Visibility 10.0 miles
Clouds Mostly Cloudy 11000 ft
Dew Point 39 °F
Humidity 27%
Rainfall 0.00 in
Snow Depth Not available.
UV 0 out of 12
Pollen 5.60 out of 12
Air Quality Not available.
Flu Activity Not available.
METAR KGUP 210053Z AUTO 00000KT 10SM BKN110 24/04 A3013 RMK AO2 RAB15E40 SLP070 P0000 T02390039

More Conditions Fewer Conditions

Pressure 29.74 in
Visibility 10.0 miles
Clouds Mostly Cloudy 11000 ft
Dew Point 39 °F
Humidity 27%
Rainfall 0.00 in
Snow Depth Not available.
UV 0 out of 12
Pollen 5.60 out of 12
Air Quality Not available.
Flu Activity Not available.
METAR KGUP 210053Z AUTO 00000KT 10SM BKN110 24/04 A3013 RMK AO2 RAB15E40 SLP070 P0000 T02390039

More Conditions Fewer Conditions

10-Day Weather Forecast

Almanac

Astronomy

Aug. 20, 2014 Rise Set
Actual Time 6:38 AM MDT 7:57 PM MDT
Civil Twilight 6:11 AM MDT 8:24 PM MDT
Nautical Twilight 5:39 AM MDT 8:56 PM MDT
Astronomical Twilight 5:06 AM MDT 9:29 PM MDT
Moon 2:24 AM MDT (8/20) 4:41 PM MDT (8/20)
Length of Visible Light 14h 13m
Length of Day
13h 19m
Tomorrow will be 2m 1s shorter.
Waning Crescent, 18% of the Moon is Illuminated
Today
Waning Crescent
Aug 25
New
Sep 2
First Quarter
Sep 8
Full
Sep 15
Last Quarter

Today's Extremes

State Highs State Lows

Community

WunderPhotos

Upload Photos

1,745,859 photos uploaded!

WunderBlogs® & News

Nearby

Snow Depth

Station Depth Elevation
Quemazon 0 in 9500 ft
Silver Creek Divide 13 in 9000 ft
Chamita 0 in 8400 ft
Santa Fe 0 in 11445 ft
Wesner Springs 0 in 11120 ft

Earthquake Activity

City Distance Mag. Time & Date
No recent earthquake activity has been reported nearby.
Minimum magnitude displayed is 2.5.

Coastal Water Temperatures

Place Temperature
No Stations Reporting

Nearby Weather Stations